sensor_id;sensor_type;location;lat;lon;timestamp;temperature;humidity
6738;DHT22;3406;49.902;8.596;2023-06-14T00:01:12;18.80;43.60
6738;DHT22;3406;49.902;8.596;2023-06-14T00:03:39;18.80;43.80
6738;DHT22;3406;49.902;8.596;2023-06-14T00:06:06;18.70;43.80
6738;DHT22;3406;49.902;8.596;2023-06-14T00:08:32;18.70;43.90
6738;DHT22;3406;49.902;8.596;2023-06-14T00:11:00;18.70;44.00
6738;DHT22;3406;49.902;8.596;2023-06-14T00:13:27;18.70;44.10
6738;DHT22;3406;49.902;8.596;2023-06-14T00:15:54;18.60;44.10
6738;DHT22;3406;49.902;8.596;2023-06-14T00:18:21;18.60;44.20
6738;DHT22;3406;49.902;8.596;2023-06-14T00:20:49;18.50;44.30
6738;DHT22;3406;49.902;8.596;2023-06-14T00:23:16;18.50;44.40
6738;DHT22;3406;49.902;8.596;2023-06-14T00:25:43;18.40;44.40
6738;DHT22;3406;49.902;8.596;2023-06-14T00:28:11;18.40;44.60
6738;DHT22;3406;49.902;8.596;2023-06-14T00:30:37;18.30;44.60
6738;DHT22;3406;49.902;8.596;2023-06-14T00:33:04;18.30;44.80
6738;DHT22;3406;49.902;8.596;2023-06-14T00:35:31;18.20;44.90
6738;DHT22;3406;49.902;8.596;2023-06-14T00:37:57;18.20;45.00
6738;DHT22;3406;49.902;8.596;2023-06-14T00:40:25;18.20;45.20
6738;DHT22;3406;49.902;8.596;2023-06-14T00:42:51;18.10;45.30
6738;DHT22;3406;49.902;8.596;2023-06-14T00:45:19;18.10;45.50
6738;DHT22;3406;49.902;8.596;2023-06-14T00:47:46;18.00;45.60
6738;DHT22;3406;49.902;8.596;2023-06-14T00:50:13;18.00;45.70
6738;DHT22;3406;49.902;8.596;2023-06-14T00:52:40;18.00;45.80
6738;DHT22;3406;49.902;8.596;2023-06-14T00:55:08;17.90;45.90
6738;DHT22;3406;49.902;8.596;2023-06-14T00:57:34;17.90;46.10
6738;DHT22;3406;49.902;8.596;2023-06-14T01:00:03;17.90;46.20
6738;DHT22;3406;49.902;8.596;2023-06-14T01:02:36;17.80;46.20
6738;DHT22;3406;49.902;8.596;2023-06-14T01:05:03;17.80;47.00
6738;DHT22;3406;49.902;8.596;2023-06-14T01:07:36;17.70;46.40
6738;DHT22;3406;49.902;8.596;2023-06-14T01:10:20;17.70;46.50
6738;DHT22;3406;49.902;8.596;2023-06-14T01:12:57;17.70;46.60
6738;DHT22;3406;49.902;8.596;2023-06-14T01:15:25;17.60;46.70
6738;DHT22;3406;49.902;8.596;2023-06-14T01:17:54;17.60;46.90
6738;DHT22;3406;49.902;8.596;2023-06-14T01:20:28;17.50;47.00
6738;DHT22;3406;49.902;8.596;2023-06-14T01:22:57;17.50;47.20
6738;DHT22;3406;49.902;8.596;2023-06-14T01:25:25;17.40;47.20
6738;DHT22;3406;49.902;8.596;2023-06-14T01:27:53;17.40;47.20
6738;DHT22;3406;49.902;8.596;2023-06-14T01:30:23;17.40;47.40
6738;DHT22;3406;49.902;8.596;2023-06-14T01:32:51;17.40;47.50
6738;DHT22;3406;49.902;8.596;2023-06-14T01:35:18;17.40;47.50
6738;DHT22;3406;49.902;8.596;2023-06-14T01:37:47;17.40;47.60
6738;DHT22;3406;49.902;8.596;2023-06-14T01:40:18;17.40;47.60
6738;DHT22;3406;49.902;8.596;2023-06-14T01:42:46;17.40;47.60
6738;DHT22;3406;49.902;8.596;2023-06-14T01:45:14;17.40;47.50
6738;DHT22;3406;49.902;8.596;2023-06-14T01:47:42;17.30;47.50
6738;DHT22;3406;49.902;8.596;2023-06-14T01:50:10;17.30;47.50
6738;DHT22;3406;49.902;8.596;2023-06-14T01:52:37;17.30;47.50
6738;DHT22;3406;49.902;8.596;2023-06-14T01:55:04;17.30;47.50
6738;DHT22;3406;49.902;8.596;2023-06-14T01:57:32;17.30;47.50
6738;DHT22;3406;49.902;8.596;2023-06-14T01:59:59;17.30;47.50
6738;DHT22;3406;49.902;8.596;2023-06-14T02:02:25;17.30;47.90
6738;DHT22;3406;49.902;8.596;2023-06-14T02:04:52;17.20;47.50
6738;DHT22;3406;49.902;8.596;2023-06-14T02:07:22;17.20;47.60
6738;DHT22;3406;49.902;8.596;2023-06-14T02:09:49;17.20;47.70
6738;DHT22;3406;49.902;8.596;2023-06-14T02:12:16;17.20;47.70
6738;DHT22;3406;49.902;8.596;2023-06-14T02:14:44;17.20;47.80
6738;DHT22;3406;49.902;8.596;2023-06-14T02:17:11;17.10;47.80
6738;DHT22;3406;49.902;8.596;2023-06-14T02:19:37;17.10;47.90
6738;DHT22;3406;49.902;8.596;2023-06-14T02:22:04;17.10;48.00
6738;DHT22;3406;49.902;8.596;2023-06-14T02:24:31;17.00;48.00
6738;DHT22;3406;49.902;8.596;2023-06-14T02:26:58;17.00;48.10
6738;DHT22;3406;49.902;8.596;2023-06-14T02:29:25;17.00;48.10
6738;DHT22;3406;49.902;8.596;2023-06-14T02:31:53;17.00;48.10
6738;DHT22;3406;49.902;8.596;2023-06-14T02:34:20;17.00;48.20
6738;DHT22;3406;49.902;8.596;2023-06-14T02:36:47;16.90;48.20
6738;DHT22;3406;49.902;8.596;2023-06-14T02:39:14;16.90;48.30
6738;DHT22;3406;49.902;8.596;2023-06-14T02:41:40;16.80;48.40
6738;DHT22;3406;49.902;8.596;2023-06-14T02:44:09;16.80;48.40
6738;DHT22;3406;49.902;8.596;2023-06-14T02:46:37;16.80;48.50
6738;DHT22;3406;49.902;8.596;2023-06-14T02:49:05;16.80;48.60
6738;DHT22;3406;49.902;8.596;2023-06-14T02:51:31;16.80;48.70
6738;DHT22;3406;49.902;8.596;2023-06-14T02:53:58;16.70;48.70
6738;DHT22;3406;49.902;8.596;2023-06-14T02:56:25;16.70;48.90
6738;DHT22;3406;49.902;8.596;2023-06-14T02:58:53;16.70;48.90
6738;DHT22;3406;49.902;8.596;2023-06-14T03:01:20;16.60;49.00
6738;DHT22;3406;49.902;8.596;2023-06-14T03:03:47;16.60;49.10
6738;DHT22;3406;49.902;8.596;2023-06-14T03:06:15;16.50;49.20
6738;DHT22;3406;49.902;8.596;2023-06-14T03:08:42;16.50;49.80
6738;DHT22;3406;49.902;8.596;2023-06-14T03:11:09;16.50;49.20
6738;DHT22;3406;49.902;8.596;2023-06-14T03:13:36;16.50;49.20
6738;DHT22;3406;49.902;8.596;2023-06-14T03:16:03;16.50;49.30
6738;DHT22;3406;49.902;8.596;2023-06-14T03:18:30;16.50;49.30
6738;DHT22;3406;49.902;8.596;2023-06-14T03:21:00;16.50;49.30
6738;DHT22;3406;49.902;8.596;2023-06-14T03:23:28;16.50;49.40
6738;DHT22;3406;49.902;8.596;2023-06-14T03:25:55;16.40;49.40
6738;DHT22;3406;49.902;8.596;2023-06-14T03:28:22;16.40;49.50
6738;DHT22;3406;49.902;8.596;2023-06-14T03:30:48;16.40;49.60
6738;DHT22;3406;49.902;8.596;2023-06-14T03:33:15;16.30;49.70
6738;DHT22;3406;49.902;8.596;2023-06-14T03:35:42;16.30;49.80
6738;DHT22;3406;49.902;8.596;2023-06-14T03:38:10;16.20;49.90
6738;DHT22;3406;49.902;8.596;2023-06-14T03:40:38;16.20;50.00
6738;DHT22;3406;49.902;8.596;2023-06-14T03:43:05;16.20;50.10
6738;DHT22;3406;49.902;8.596;2023-06-14T03:45:31;16.10;50.10
6738;DHT22;3406;49.902;8.596;2023-06-14T03:47:58;16.10;50.30
6738;DHT22;3406;49.902;8.596;2023-06-14T03:50:25;16.10;50.40
6738;DHT22;3406;49.902;8.596;2023-06-14T03:52:52;16.00;50.50
6738;DHT22;3406;49.902;8.596;2023-06-14T03:55:19;16.00;50.70
6738;DHT22;3406;49.902;8.596;2023-06-14T03:57:47;16.00;50.80
6738;DHT22;3406;49.902;8.596;2023-06-14T04:00:14;16.00;50.80
6738;DHT22;3406;49.902;8.596;2023-06-14T04:02:41;16.00;50.90
6738;DHT22;3406;49.902;8.596;2023-06-14T04:05:10;16.00;50.90
6738;DHT22;3406;49.902;8.596;2023-06-14T04:07:37;16.00;51.00
6738;DHT22;3406;49.902;8.596;2023-06-14T04:10:06;16.00;51.00
6738;DHT22;3406;49.902;8.596;2023-06-14T04:12:33;16.00;51.10
6738;DHT22;3406;49.902;8.596;2023-06-14T04:15:01;16.10;51.10
6738;DHT22;3406;49.902;8.596;2023-06-14T04:17:28;16.10;51.10
6738;DHT22;3406;49.902;8.596;2023-06-14T04:19:55;16.20;51.10
6738;DHT22;3406;49.902;8.596;2023-06-14T04:22:24;16.20;51.10
6738;DHT22;3406;49.902;8.596;2023-06-14T04:24:54;16.30;51.10
6738;DHT22;3406;49.902;8.596;2023-06-14T04:27:21;16.30;51.10
6738;DHT22;3406;49.902;8.596;2023-06-14T04:29:51;16.40;51.20
6738;DHT22;3406;49.902;8.596;2023-06-14T04:32:23;16.40;51.70
6738;DHT22;3406;49.902;8.596;2023-06-14T04:34:51;16.40;51.10
6738;DHT22;3406;49.902;8.596;2023-06-14T04:37:19;16.50;51.10
6738;DHT22;3406;49.902;8.596;2023-06-14T04:39:46;16.60;51.20
6738;DHT22;3406;49.902;8.596;2023-06-14T04:42:13;16.60;51.30
6738;DHT22;3406;49.902;8.596;2023-06-14T04:44:41;16.70;51.30
6738;DHT22;3406;49.902;8.596;2023-06-14T04:47:08;16.70;51.30
6738;DHT22;3406;49.902;8.596;2023-06-14T04:49:38;16.80;51.30
6738;DHT22;3406;49.902;8.596;2023-06-14T04:52:06;16.80;51.30
6738;DHT22;3406;49.902;8.596;2023-06-14T04:54:35;16.90;51.30
6738;DHT22;3406;49.902;8.596;2023-06-14T04:57:03;17.00;51.20
6738;DHT22;3406;49.902;8.596;2023-06-14T04:59:31;17.10;51.20
6738;DHT22;3406;49.902;8.596;2023-06-14T05:01:58;17.20;51.20
6738;DHT22;3406;49.902;8.596;2023-06-14T05:04:26;17.30;51.20
6738;DHT22;3406;49.902;8.596;2023-06-14T05:06:54;17.30;51.10
6738;DHT22;3406;49.902;8.596;2023-06-14T05:09:21;17.40;51.00
6738;DHT22;3406;49.902;8.596;2023-06-14T05:11:48;17.50;50.90
6738;DHT22;3406;49.902;8.596;2023-06-14T05:14:16;17.60;50.90
6738;DHT22;3406;49.902;8.596;2023-06-14T05:16:42;17.70;50.90
6738;DHT22;3406;49.902;8.596;2023-06-14T05:19:09;17.80;50.80
6738;DHT22;3406;49.902;8.596;2023-06-14T05:21:36;18.00;50.90
6738;DHT22;3406;49.902;8.596;2023-06-14T05:24:05;18.10;50.80
6738;DHT22;3406;49.902;8.596;2023-06-14T05:26:31;18.10;50.70
6738;DHT22;3406;49.902;8.596;2023-06-14T05:28:59;18.20;50.60
6738;DHT22;3406;49.902;8.596;2023-06-14T05:31:27;18.30;50.50
6738;DHT22;3406;49.902;8.596;2023-06-14T05:33:54;18.40;50.30
6738;DHT22;3406;49.902;8.596;2023-06-14T05:36:20;18.60;50.80
6738;DHT22;3406;49.902;8.596;2023-06-14T05:38:47;18.60;49.90
6738;DHT22;3406;49.902;8.596;2023-06-14T05:41:15;18.70;49.80
6738;DHT22;3406;49.902;8.596;2023-06-14T05:43:42;18.80;49.70
6738;DHT22;3406;49.902;8.596;2023-06-14T05:46:08;19.00;49.60
6738;DHT22;3406;49.902;8.596;2023-06-14T05:48:35;19.10;49.50
6738;DHT22;3406;49.902;8.596;2023-06-14T05:51:02;19.20;49.30
6738;DHT22;3406;49.902;8.596;2023-06-14T05:53:29;19.30;49.20
6738;DHT22;3406;49.902;8.596;2023-06-14T05:55:56;19.40;49.10
6738;DHT22;3406;49.902;8.596;2023-06-14T05:58:24;19.50;48.90
6738;DHT22;3406;49.902;8.596;2023-06-14T06:00:50;19.60;48.70
6738;DHT22;3406;49.902;8.596;2023-06-14T06:03:19;19.70;48.60
6738;DHT22;3406;49.902;8.596;2023-06-14T06:05:46;19.90;48.40
6738;DHT22;3406;49.902;8.596;2023-06-14T06:08:13;20.00;48.20
6738;DHT22;3406;49.902;8.596;2023-06-14T06:10:39;20.10;48.20
6738;DHT22;3406;49.902;8.596;2023-06-14T06:13:06;20.20;48.00
6738;DHT22;3406;49.902;8.596;2023-06-14T06:15:34;20.30;47.80
6738;DHT22;3406;49.902;8.596;2023-06-14T06:18:01;20.30;47.60
6738;DHT22;3406;49.902;8.596;2023-06-14T06:20:27;20.40;47.60
6738;DHT22;3406;49.902;8.596;2023-06-14T06:22:56;20.40;47.60
6738;DHT22;3406;49.902;8.596;2023-06-14T06:25:23;20.50;47.50
6738;DHT22;3406;49.902;8.596;2023-06-14T06:27:51;20.70;47.50
6738;DHT22;3406;49.902;8.596;2023-06-14T06:30:18;20.80;47.40
6738;DHT22;3406;49.902;8.596;2023-06-14T06:32:46;20.80;47.20
6738;DHT22;3406;49.902;8.596;2023-06-14T06:35:14;20.90;47.00
6738;DHT22;3406;49.902;8.596;2023-06-14T06:37:41;20.90;46.80
6738;DHT22;3406;49.902;8.596;2023-06-14T06:40:09;21.00;46.90
6738;DHT22;3406;49.902;8.596;2023-06-14T06:42:36;21.20;46.80
6738;DHT22;3406;49.902;8.596;2023-06-14T06:45:03;21.30;46.30
6738;DHT22;3406;49.902;8.596;2023-06-14T06:47:29;21.30;46.20
6738;DHT22;3406;49.902;8.596;2023-06-14T06:49:57;21.40;46.10
6738;DHT22;3406;49.902;8.596;2023-06-14T06:52:24;21.40;46.10
6738;DHT22;3406;49.902;8.596;2023-06-14T06:54:51;21.40;45.90
6738;DHT22;3406;49.902;8.596;2023-06-14T06:57:20;21.50;45.90
6738;DHT22;3406;49.902;8.596;2023-06-14T06:59:47;21.60;45.80
6738;DHT22;3406;49.902;8.596;2023-06-14T07:02:14;21.80;45.80
6738;DHT22;3406;49.902;8.596;2023-06-14T07:04:41;21.90;45.50
6738;DHT22;3406;49.902;8.596;2023-06-14T07:07:09;22.00;45.50
6738;DHT22;3406;49.902;8.596;2023-06-14T07:09:35;22.10;45.30
6738;DHT22;3406;49.902;8.596;2023-06-14T07:12:03;22.10;45.10
6738;DHT22;3406;49.902;8.596;2023-06-14T07:14:30;22.10;45.10
6738;DHT22;3406;49.902;8.596;2023-06-14T07:16:56;22.20;44.80
6738;DHT22;3406;49.902;8.596;2023-06-14T07:19:23;22.30;44.70
6738;DHT22;3406;49.902;8.596;2023-06-14T07:21:50;22.30;44.60
6738;DHT22;3406;49.902;8.596;2023-06-14T07:24:19;22.40;44.70
6738;DHT22;3406;49.902;8.596;2023-06-14T07:26:46;22.50;44.70
6738;DHT22;3406;49.902;8.596;2023-06-14T07:29:14;22.70;44.60
6738;DHT22;3406;49.902;8.596;2023-06-14T07:31:41;22.90;44.30
6738;DHT22;3406;49.902;8.596;2023-06-14T07:34:08;23.00;44.20
6738;DHT22;3406;49.902;8.596;2023-06-14T07:36:35;23.20;44.10
6738;DHT22;3406;49.902;8.596;2023-06-14T07:39:02;23.30;43.90
6738;DHT22;3406;49.902;8.596;2023-06-14T07:41:32;23.40;43.70
6738;DHT22;3406;49.902;8.596;2023-06-14T07:43:59;23.40;43.70
6738;DHT22;3406;49.902;8.596;2023-06-14T07:46:25;23.50;43.40
6738;DHT22;3406;49.902;8.596;2023-06-14T07:48:52;23.50;43.30
6738;DHT22;3406;49.902;8.596;2023-06-14T07:51:19;23.50;43.10
6738;DHT22;3406;49.902;8.596;2023-06-14T07:53:47;23.60;42.90
6738;DHT22;3406;49.902;8.596;2023-06-14T07:56:14;23.60;42.70
6738;DHT22;3406;49.902;8.596;2023-06-14T07:58:42;23.50;42.70
6738;DHT22;3406;49.902;8.596;2023-06-14T08:01:09;23.60;43.20
6738;DHT22;3406;49.902;8.596;2023-06-14T08:03:36;23.60;42.50
6738;DHT22;3406;49.902;8.596;2023-06-14T08:06:03;23.70;42.40
6738;DHT22;3406;49.902;8.596;2023-06-14T08:08:30;23.70;42.10
6738;DHT22;3406;49.902;8.596;2023-06-14T08:10:57;23.70;42.00
6738;DHT22;3406;49.902;8.596;2023-06-14T08:13:23;23.70;41.90
6738;DHT22;3406;49.902;8.596;2023-06-14T08:15:51;23.70;41.70
6738;DHT22;3406;49.902;8.596;2023-06-14T08:18:18;23.80;42.30
6738;DHT22;3406;49.902;8.596;2023-06-14T08:20:45;23.80;41.60
6738;DHT22;3406;49.902;8.596;2023-06-14T08:23:11;23.80;41.50
6738;DHT22;3406;49.902;8.596;2023-06-14T08:25:38;23.90;41.70
6738;DHT22;3406;49.902;8.596;2023-06-14T08:28:05;24.00;41.60
6738;DHT22;3406;49.902;8.596;2023-06-14T08:30:32;24.20;41.40
6738;DHT22;3406;49.902;8.596;2023-06-14T08:33:00;24.30;41.20
6738;DHT22;3406;49.902;8.596;2023-06-14T08:35:26;24.30;41.10
6738;DHT22;3406;49.902;8.596;2023-06-14T08:37:53;24.40;40.90
6738;DHT22;3406;49.902;8.596;2023-06-14T08:40:21;24.20;40.20
6738;DHT22;3406;49.902;8.596;2023-06-14T08:42:51;24.10;40.40
6738;DHT22;3406;49.902;8.596;2023-06-14T08:45:18;24.10;40.70
6738;DHT22;3406;49.902;8.596;2023-06-14T08:47:45;24.10;40.70
6738;DHT22;3406;49.902;8.596;2023-06-14T08:50:13;24.20;40.50
6738;DHT22;3406;49.902;8.596;2023-06-14T08:52:42;24.30;40.30
6738;DHT22;3406;49.902;8.596;2023-06-14T08:55:16;24.30;40.20
6738;DHT22;3406;49.902;8.596;2023-06-14T08:57:46;24.40;40.00
6738;DHT22;3406;49.902;8.596;2023-06-14T09:00:14;24.40;39.90
6738;DHT22;3406;49.902;8.596;2023-06-14T09:02:40;24.40;39.70
6738;DHT22;3406;49.902;8.596;2023-06-14T09:05:09;24.50;39.50
6738;DHT22;3406;49.902;8.596;2023-06-14T09:07:37;24.40;39.20
6738;DHT22;3406;49.902;8.596;2023-06-14T09:10:07;24.40;39.20
6738;DHT22;3406;49.902;8.596;2023-06-14T09:12:35;24.40;39.00
6738;DHT22;3406;49.902;8.596;2023-06-14T09:15:01;24.40;38.40
6738;DHT22;3406;49.902;8.596;2023-06-14T09:17:32;24.30;38.10
6738;DHT22;3406;49.902;8.596;2023-06-14T09:20:00;24.20;38.50
6738;DHT22;3406;49.902;8.596;2023-06-14T09:22:30;24.30;38.70
6738;DHT22;3406;49.902;8.596;2023-06-14T09:24:58;24.40;38.60
6738;DHT22;3406;49.902;8.596;2023-06-14T09:27:26;24.50;38.40
6738;DHT22;3406;49.902;8.596;2023-06-14T09:29:53;24.60;38.10
6738;DHT22;3406;49.902;8.596;2023-06-14T09:32:20;24.70;38.00
6738;DHT22;3406;49.902;8.596;2023-06-14T09:34:47;24.80;38.50
6738;DHT22;3406;49.902;8.596;2023-06-14T09:37:26;24.80;37.50
6738;DHT22;3406;49.902;8.596;2023-06-14T09:39:53;24.80;37.30
6738;DHT22;3406;49.902;8.596;2023-06-14T09:42:21;24.90;37.30
6738;DHT22;3406;49.902;8.596;2023-06-14T09:44:49;24.80;37.30
6738;DHT22;3406;49.902;8.596;2023-06-14T09:47:16;24.80;37.20
6738;DHT22;3406;49.902;8.596;2023-06-14T09:49:43;24.90;37.40
6738;DHT22;3406;49.902;8.596;2023-06-14T09:52:12;24.90;37.40
6738;DHT22;3406;49.902;8.596;2023-06-14T09:54:41;25.00;37.50
6738;DHT22;3406;49.902;8.596;2023-06-14T09:57:09;25.10;37.00
6738;DHT22;3406;49.902;8.596;2023-06-14T09:59:40;25.00;37.00
6738;DHT22;3406;49.902;8.596;2023-06-14T10:02:11;25.10;37.20
6738;DHT22;3406;49.902;8.596;2023-06-14T10:04:41;25.20;37.20
6738;DHT22;3406;49.902;8.596;2023-06-14T10:07:12;25.10;37.20
6738;DHT22;3406;49.902;8.596;2023-06-14T10:09:41;25.10;37.40
6738;DHT22;3406;49.902;8.596;2023-06-14T10:12:11;25.10;37.20
6738;DHT22;3406;49.902;8.596;2023-06-14T10:14:42;25.10;37.30
6738;DHT22;3406;49.902;8.596;2023-06-14T10:17:10;25.20;37.40
6738;DHT22;3406;49.902;8.596;2023-06-14T10:19:46;25.20;37.30
6738;DHT22;3406;49.902;8.596;2023-06-14T10:22:21;25.30;37.60
6738;DHT22;3406;49.902;8.596;2023-06-14T10:24:50;25.30;37.50
6738;DHT22;3406;49.902;8.596;2023-06-14T10:27:17;25.40;37.30
6738;DHT22;3406;49.902;8.596;2023-06-14T10:30:07;25.50;37.40
6738;DHT22;3406;49.902;8.596;2023-06-14T10:32:34;25.50;37.30
6738;DHT22;3406;49.902;8.596;2023-06-14T10:35:04;25.40;37.00
6738;DHT22;3406;49.902;8.596;2023-06-14T10:37:32;25.30;37.20
6738;DHT22;3406;49.902;8.596;2023-06-14T10:39:59;25.40;37.50
6738;DHT22;3406;49.902;8.596;2023-06-14T10:42:29;25.60;37.60
6738;DHT22;3406;49.902;8.596;2023-06-14T10:44:58;25.70;37.40
6738;DHT22;3406;49.902;8.596;2023-06-14T10:47:28;25.70;37.30
6738;DHT22;3406;49.902;8.596;2023-06-14T10:49:58;25.70;37.50
6738;DHT22;3406;49.902;8.596;2023-06-14T10:52:32;25.60;37.40
6738;DHT22;3406;49.902;8.596;2023-06-14T10:55:04;25.50;37.60
6738;DHT22;3406;49.902;8.596;2023-06-14T10:57:32;25.60;37.70
6738;DHT22;3406;49.902;8.596;2023-06-14T10:59:59;25.60;37.60
6738;DHT22;3406;49.902;8.596;2023-06-14T11:02:50;25.50;37.60
6738;DHT22;3406;49.902;8.596;2023-06-14T11:05:24;25.50;37.70
6738;DHT22;3406;49.902;8.596;2023-06-14T11:08:12;25.30;37.90
6738;DHT22;3406;49.902;8.596;2023-06-14T11:10:50;25.30;38.00
6738;DHT22;3406;49.902;8.596;2023-06-14T11:13:17;25.40;38.00
6738;DHT22;3406;49.902;8.596;2023-06-14T11:15:45;25.30;38.00
6738;DHT22;3406;49.902;8.596;2023-06-14T11:18:14;25.10;38.10
6738;DHT22;3406;49.902;8.596;2023-06-14T11:20:42;25.00;38.30
6738;DHT22;3406;49.902;8.596;2023-06-14T11:23:09;24.80;38.30
6738;DHT22;3406;49.902;8.596;2023-06-14T11:25:35;24.80;38.40
6738;DHT22;3406;49.902;8.596;2023-06-14T11:28:02;24.90;38.50
6738;DHT22;3406;49.902;8.596;2023-06-14T11:30:29;25.20;38.40
6738;DHT22;3406;49.902;8.596;2023-06-14T11:32:55;25.60;38.00
6738;DHT22;3406;49.902;8.596;2023-06-14T11:35:25;25.90;37.20
6738;DHT22;3406;49.902;8.596;2023-06-14T11:37:53;26.30;37.00
6738;DHT22;3406;49.902;8.596;2023-06-14T11:40:23;26.50;36.30
6738;DHT22;3406;49.902;8.596;2023-06-14T11:42:53;26.40;36.20
6738;DHT22;3406;49.902;8.596;2023-06-14T11:45:25;26.30;36.10
6738;DHT22;3406;49.902;8.596;2023-06-14T11:47:53;26.10;36.40
6738;DHT22;3406;49.902;8.596;2023-06-14T11:50:20;25.90;36.70
6738;DHT22;3406;49.902;8.596;2023-06-14T11:52:53;25.80;36.90
6738;DHT22;3406;49.902;8.596;2023-06-14T11:55:21;25.60;36.90
6738;DHT22;3406;49.902;8.596;2023-06-14T11:57:48;25.40;37.00
6738;DHT22;3406;49.902;8.596;2023-06-14T12:00:15;25.40;37.20
6738;DHT22;3406;49.902;8.596;2023-06-14T12:02:43;25.30;37.30
6738;DHT22;3406;49.902;8.596;2023-06-14T12:05:20;25.30;37.40
6738;DHT22;3406;49.902;8.596;2023-06-14T12:07:47;25.20;37.30
6738;DHT22;3406;49.902;8.596;2023-06-14T12:10:15;25.20;37.30
6738;DHT22;3406;49.902;8.596;2023-06-14T12:12:43;25.20;37.20
6738;DHT22;3406;49.902;8.596;2023-06-14T12:15:10;25.20;37.20
6738;DHT22;3406;49.902;8.596;2023-06-14T12:17:38;25.30;37.30
6738;DHT22;3406;49.902;8.596;2023-06-14T12:20:08;25.40;37.30
6738;DHT22;3406;49.902;8.596;2023-06-14T12:22:36;25.40;37.30
6738;DHT22;3406;49.902;8.596;2023-06-14T12:25:03;25.70;37.30
6738;DHT22;3406;49.902;8.596;2023-06-14T12:27:32;25.90;36.70
6738;DHT22;3406;49.902;8.596;2023-06-14T12:30:00;26.10;36.50
6738;DHT22;3406;49.902;8.596;2023-06-14T12:32:27;26.10;36.60
6738;DHT22;3406;49.902;8.596;2023-06-14T12:34:54;26.20;36.80
6738;DHT22;3406;49.902;8.596;2023-06-14T12:37:20;26.10;36.90
6738;DHT22;3406;49.902;8.596;2023-06-14T12:39:47;26.00;36.80
6738;DHT22;3406;49.902;8.596;2023-06-14T12:42:16;25.90;36.70
6738;DHT22;3406;49.902;8.596;2023-06-14T12:44:44;25.90;36.90
6738;DHT22;3406;49.902;8.596;2023-06-14T12:47:10;26.10;37.00
6738;DHT22;3406;49.902;8.596;2023-06-14T12:49:39;26.10;36.50
6738;DHT22;3406;49.902;8.596;2023-06-14T12:52:07;26.40;36.50
6738;DHT22;3406;49.902;8.596;2023-06-14T12:54:34;26.70;36.30
6738;DHT22;3406;49.902;8.596;2023-06-14T12:57:01;26.90;36.10
6738;DHT22;3406;49.902;8.596;2023-06-14T12:59:28;27.00;35.40
6738;DHT22;3406;49.902;8.596;2023-06-14T13:02:09;27.10;35.30
6738;DHT22;3406;49.902;8.596;2023-06-14T13:04:36;27.10;35.20
6738;DHT22;3406;49.902;8.596;2023-06-14T13:07:03;27.30;35.20
6738;DHT22;3406;49.902;8.596;2023-06-14T13:09:29;27.40;34.60
6738;DHT22;3406;49.902;8.596;2023-06-14T13:11:56;27.40;34.60
6738;DHT22;3406;49.902;8.596;2023-06-14T13:14:23;27.40;34.60
6738;DHT22;3406;49.902;8.596;2023-06-14T13:16:49;27.20;34.80
6738;DHT22;3406;49.902;8.596;2023-06-14T13:19:17;26.90;34.90
6738;DHT22;3406;49.902;8.596;2023-06-14T13:21:44;26.80;35.10
6738;DHT22;3406;49.902;8.596;2023-06-14T13:24:11;26.90;34.90
6738;DHT22;3406;49.902;8.596;2023-06-14T13:26:37;26.90;34.90
6738;DHT22;3406;49.902;8.596;2023-06-14T13:29:04;26.80;34.50
6738;DHT22;3406;49.902;8.596;2023-06-14T13:31:31;26.80;34.40
6738;DHT22;3406;49.902;8.596;2023-06-14T13:33:57;26.80;34.50
6738;DHT22;3406;49.902;8.596;2023-06-14T13:36:25;26.60;34.70
6738;DHT22;3406;49.902;8.596;2023-06-14T13:38:52;26.40;34.90
6738;DHT22;3406;49.902;8.596;2023-06-14T13:41:20;26.30;35.20
6738;DHT22;3406;49.902;8.596;2023-06-14T13:43:47;26.20;35.50
6738;DHT22;3406;49.902;8.596;2023-06-14T13:46:13;26.10;35.70
6738;DHT22;3406;49.902;8.596;2023-06-14T13:48:40;26.10;35.80
6738;DHT22;3406;49.902;8.596;2023-06-14T13:51:07;26.30;35.70
6738;DHT22;3406;49.902;8.596;2023-06-14T13:53:35;26.60;35.40
6738;DHT22;3406;49.902;8.596;2023-06-14T13:56:03;26.80;35.20
6738;DHT22;3406;49.902;8.596;2023-06-14T13:58:29;27.00;34.90
6738;DHT22;3406;49.902;8.596;2023-06-14T14:00:56;27.40;34.40
6738;DHT22;3406;49.902;8.596;2023-06-14T14:03:25;27.40;34.00
6738;DHT22;3406;49.902;8.596;2023-06-14T14:05:52;27.40;33.80
6738;DHT22;3406;49.902;8.596;2023-06-14T14:08:18;27.40;33.60
6738;DHT22;3406;49.902;8.596;2023-06-14T14:10:46;27.20;33.70
6738;DHT22;3406;49.902;8.596;2023-06-14T14:13:13;27.10;34.00
6738;DHT22;3406;49.902;8.596;2023-06-14T14:15:40;26.90;33.80
6738;DHT22;3406;49.902;8.596;2023-06-14T14:18:06;27.00;34.10
6738;DHT22;3406;49.902;8.596;2023-06-14T14:20:33;27.10;34.00
6738;DHT22;3406;49.902;8.596;2023-06-14T14:22:59;27.20;33.70
6738;DHT22;3406;49.902;8.596;2023-06-14T14:25:27;27.30;33.50
6738;DHT22;3406;49.902;8.596;2023-06-14T14:27:55;27.40;33.30
6738;DHT22;3406;49.902;8.596;2023-06-14T14:30:22;27.50;33.20
6738;DHT22;3406;49.902;8.596;2023-06-14T14:32:49;27.60;33.20
6738;DHT22;3406;49.902;8.596;2023-06-14T14:35:16;27.80;33.20
6738;DHT22;3406;49.902;8.596;2023-06-14T14:37:43;28.00;33.20
6738;DHT22;3406;49.902;8.596;2023-06-14T14:40:11;28.10;33.00
6738;DHT22;3406;49.902;8.596;2023-06-14T14:42:38;28.10;32.70
6738;DHT22;3406;49.902;8.596;2023-06-14T14:45:07;28.00;32.60
6738;DHT22;3406;49.902;8.596;2023-06-14T14:47:34;27.90;32.30
6738;DHT22;3406;49.902;8.596;2023-06-14T14:50:00;27.70;32.00
6738;DHT22;3406;49.902;8.596;2023-06-14T14:52:27;27.80;32.20
6738;DHT22;3406;49.902;8.596;2023-06-14T14:54:54;27.90;32.30
6738;DHT22;3406;49.902;8.596;2023-06-14T14:57:21;27.90;32.40
6738;DHT22;3406;49.902;8.596;2023-06-14T14:59:48;27.90;32.50
6738;DHT22;3406;49.902;8.596;2023-06-14T15:02:16;28.00;32.10
6738;DHT22;3406;49.902;8.596;2023-06-14T15:04:42;27.90;31.90
6738;DHT22;3406;49.902;8.596;2023-06-14T15:07:09;27.70;31.90
6738;DHT22;3406;49.902;8.596;2023-06-14T15:09:35;27.50;32.20
6738;DHT22;3406;49.902;8.596;2023-06-14T15:12:03;27.40;32.20
6738;DHT22;3406;49.902;8.596;2023-06-14T15:14:30;27.50;32.40
6738;DHT22;3406;49.902;8.596;2023-06-14T15:16:56;27.60;32.10
6738;DHT22;3406;49.902;8.596;2023-06-14T15:19:25;27.60;32.00
6738;DHT22;3406;49.902;8.596;2023-06-14T15:21:51;27.80;32.10
6738;DHT22;3406;49.902;8.596;2023-06-14T15:24:18;27.90;31.80
6738;DHT22;3406;49.902;8.596;2023-06-14T15:26:45;28.00;31.70
6738;DHT22;3406;49.902;8.596;2023-06-14T15:29:12;28.00;31.60
6738;DHT22;3406;49.902;8.596;2023-06-14T15:31:38;28.10;31.50
6738;DHT22;3406;49.902;8.596;2023-06-14T15:34:05;28.10;31.00
6738;DHT22;3406;49.902;8.596;2023-06-14T15:36:33;28.10;31.20
6738;DHT22;3406;49.902;8.596;2023-06-14T15:39:00;28.10;31.10
6738;DHT22;3406;49.902;8.596;2023-06-14T15:41:27;28.20;31.30
6738;DHT22;3406;49.902;8.596;2023-06-14T15:43:53;28.30;31.50
6738;DHT22;3406;49.902;8.596;2023-06-14T15:46:21;28.50;31.50
6738;DHT22;3406;49.902;8.596;2023-06-14T15:48:48;28.40;31.30
6738;DHT22;3406;49.902;8.596;2023-06-14T15:51:15;28.10;31.50
6738;DHT22;3406;49.902;8.596;2023-06-14T15:53:44;27.80;32.00
6738;DHT22;3406;49.902;8.596;2023-06-14T15:56:10;27.50;32.50
6738;DHT22;3406;49.902;8.596;2023-06-14T15:58:37;27.20;32.80
6738;DHT22;3406;49.902;8.596;2023-06-14T16:01:04;26.90;33.10
6738;DHT22;3406;49.902;8.596;2023-06-14T16:03:30;26.80;33.50
6738;DHT22;3406;49.902;8.596;2023-06-14T16:05:57;26.90;33.30